sensor_id;sensor_type;location;lat;lon;timestamp;pressure;altitude;pressure_sealevel;temperature;humidity
72685;BME280;61365;52.162;4.500;2023-04-21T00:00:51;101627.63;;;8.53;83.11
72685;BME280;61365;52.162;4.500;2023-04-21T00:03:18;101609.47;;;8.59;81.53
72685;BME280;61365;52.162;4.500;2023-04-21T00:05:46;101599.19;;;8.70;82.56
72685;BME280;61365;52.162;4.500;2023-04-21T00:08:13;101599.47;;;8.41;82.71
72685;BME280;61365;52.162;4.500;2023-04-21T00:10:40;101590.69;;;8.37;83.71
72685;BME280;61365;52.162;4.500;2023-04-21T00:13:06;101592.53;;;8.43;83.91
72685;BME280;61365;52.162;4.500;2023-04-21T00:15:32;101598.59;;;8.40;83.95
72685;BME280;61365;52.162;4.500;2023-04-21T00:17:59;101604.03;;;8.50;84.53
72685;BME280;61365;52.162;4.500;2023-04-21T00:20:25;101607.00;;;8.25;85.79
72685;BME280;61365;52.162;4.500;2023-04-21T00:22:52;101607.72;;;8.17;86.02
72685;BME280;61365;52.162;4.500;2023-04-21T00:25:18;101605.19;;;8.23;86.09
72685;BME280;61365;52.162;4.500;2023-04-21T00:27:44;101615.09;;;8.38;85.81
72685;BME280;61365;52.162;4.500;2023-04-21T00:30:11;101617.78;;;8.41;85.51
72685;BME280;61365;52.162;4.500;2023-04-21T00:32:37;101609.78;;;8.33;85.08
72685;BME280;61365;52.162;4.500;2023-04-21T00:35:03;101604.31;;;8.64;84.51
72685;BME280;61365;52.162;4.500;2023-04-21T00:37:29;101610.34;;;8.20;86.25
72685;BME280;61365;52.162;4.500;2023-04-21T00:39:56;101594.50;;;8.12;87.04
72685;BME280;61365;52.162;4.500;2023-04-21T00:42:23;101589.19;;;8.07;87.43
72685;BME280;61365;52.162;4.500;2023-04-21T00:44:50;101576.16;;;8.09;87.38
72685;BME280;61365;52.162;4.500;2023-04-21T00:47:17;101578.25;;;8.27;87.11
72685;BME280;61365;52.162;4.500;2023-04-21T00:49:44;101579.75;;;8.14;87.50
72685;BME280;61365;52.162;4.500;2023-04-21T00:52:11;101568.94;;;7.97;89.16
72685;BME280;61365;52.162;4.500;2023-04-21T00:54:38;101545.03;;;8.21;88.46
72685;BME280;61365;52.162;4.500;2023-04-21T00:57:05;101539.38;;;8.43;86.84
72685;BME280;61365;52.162;4.500;2023-04-21T00:59:32;101555.78;;;8.37;87.04
72685;BME280;61365;52.162;4.500;2023-04-21T01:01:59;101550.34;;;8.26;87.26
72685;BME280;61365;52.162;4.500;2023-04-21T01:04:25;101549.38;;;8.21;87.98
72685;BME280;61365;52.162;4.500;2023-04-21T01:06:52;101543.34;;;8.25;88.21
72685;BME280;61365;52.162;4.500;2023-04-21T01:09:19;101543.34;;;8.23;87.84
72685;BME280;61365;52.162;4.500;2023-04-21T01:12:02;101557.00;;;8.10;88.73
72685;BME280;61365;52.162;4.500;2023-04-21T01:14:29;101550.13;;;8.15;89.60
72685;BME280;61365;52.162;4.500;2023-04-21T01:16:55;101554.56;;;8.18;89.10
72685;BME280;61365;52.162;4.500;2023-04-21T01:19:22;101546.59;;;8.13;88.78
72685;BME280;61365;52.162;4.500;2023-04-21T01:21:50;101548.56;;;8.23;88.84
72685;BME280;61365;52.162;4.500;2023-04-21T01:24:18;101546.75;;;8.21;88.86
72685;BME280;61365;52.162;4.500;2023-04-21T01:26:45;101539.03;;;8.27;88.59
72685;BME280;61365;52.162;4.500;2023-04-21T01:29:14;101537.34;;;8.29;88.51
72685;BME280;61365;52.162;4.500;2023-04-21T01:31:41;101540.94;;;8.34;88.10
72685;BME280;61365;52.162;4.500;2023-04-21T01:34:07;101541.38;;;8.11;88.70
72685;BME280;61365;52.162;4.500;2023-04-21T01:36:34;101535.28;;;8.13;88.65
72685;BME280;61365;52.162;4.500;2023-04-21T01:39:01;101539.53;;;8.07;89.82
72685;BME280;61365;52.162;4.500;2023-04-21T01:41:28;101546.44;;;8.04;89.42
72685;BME280;61365;52.162;4.500;2023-04-21T01:43:55;101536.09;;;8.10;89.86
72685;BME280;61365;52.162;4.500;2023-04-21T01:46:21;101542.06;;;8.04;89.15
72685;BME280;61365;52.162;4.500;2023-04-21T01:48:47;101529.94;;;8.06;90.69
72685;BME280;61365;52.162;4.500;2023-04-21T01:51:13;101531.00;;;8.16;90.15
72685;BME280;61365;52.162;4.500;2023-04-21T01:53:40;101534.22;;;8.03;90.18
72685;BME280;61365;52.162;4.500;2023-04-21T01:56:06;101526.75;;;8.21;89.72
72685;BME280;61365;52.162;4.500;2023-04-21T01:58:32;101528.28;;;8.11;89.25
72685;BME280;61365;52.162;4.500;2023-04-21T02:00:58;101520.44;;;8.11;90.88
72685;BME280;61365;52.162;4.500;2023-04-21T02:03:24;101513.78;;;8.27;89.85
72685;BME280;61365;52.162;4.500;2023-04-21T02:05:50;101507.94;;;7.96;90.59
72685;BME280;61365;52.162;4.500;2023-04-21T02:08:16;101503.44;;;7.89;91.52
72685;BME280;61365;52.162;4.500;2023-04-21T02:10:42;101500.97;;;7.95;91.70
72685;BME280;61365;52.162;4.500;2023-04-21T02:13:09;101497.44;;;7.95;91.77
72685;BME280;61365;52.162;4.500;2023-04-21T02:15:36;101497.63;;;8.03;91.42
72685;BME280;61365;52.162;4.500;2023-04-21T02:18:02;101494.63;;;7.84;91.97
72685;BME280;61365;52.162;4.500;2023-04-21T02:20:28;101493.03;;;7.91;91.87
72685;BME280;61365;52.162;4.500;2023-04-21T02:22:54;101500.09;;;7.96;92.09
72685;BME280;61365;52.162;4.500;2023-04-21T02:25:20;101509.78;;;8.01;92.14
72685;BME280;61365;52.162;4.500;2023-04-21T02:27:46;101496.56;;;7.94;91.59
72685;BME280;61365;52.162;4.500;2023-04-21T02:30:12;101490.56;;;7.99;92.11
72685;BME280;61365;52.162;4.500;2023-04-21T02:32:38;101503.59;;;7.97;91.97
72685;BME280;61365;52.162;4.500;2023-04-21T02:35:05;101506.72;;;7.79;92.90
72685;BME280;61365;52.162;4.500;2023-04-21T02:37:31;101501.66;;;7.87;94.00
72685;BME280;61365;52.162;4.500;2023-04-21T02:39:57;101507.94;;;7.96;92.81
72685;BME280;61365;52.162;4.500;2023-04-21T02:42:23;101498.34;;;7.95;92.56
72685;BME280;61365;52.162;4.500;2023-04-21T02:44:49;101492.28;;;7.98;93.07
72685;BME280;61365;52.162;4.500;2023-04-21T02:47:16;101497.50;;;7.98;92.65
72685;BME280;61365;52.162;4.500;2023-04-21T02:49:42;101489.50;;;7.89;92.98
72685;BME280;61365;52.162;4.500;2023-04-21T02:52:08;101485.00;;;7.83;93.69
72685;BME280;61365;52.162;4.500;2023-04-21T02:54:34;101477.41;;;7.94;93.59
72685;BME280;61365;52.162;4.500;2023-04-21T02:57:00;101473.88;;;7.92;93.67
72685;BME280;61365;52.162;4.500;2023-04-21T02:59:26;101465.88;;;7.84;93.77
72685;BME280;61365;52.162;4.500;2023-04-21T03:01:52;101464.91;;;7.79;93.78
72685;BME280;61365;52.162;4.500;2023-04-21T03:04:19;101461.50;;;7.83;94.14
72685;BME280;61365;52.162;4.500;2023-04-21T03:06:45;101468.38;;;7.78;93.53
72685;BME280;61365;52.162;4.500;2023-04-21T03:09:11;101471.06;;;7.81;94.05
72685;BME280;61365;52.162;4.500;2023-04-21T03:11:37;101460.59;;;7.81;93.83
72685;BME280;61365;52.162;4.500;2023-04-21T03:14:03;101464.38;;;7.97;93.34
72685;BME280;61365;52.162;4.500;2023-04-21T03:16:29;101461.09;;;8.06;93.23
72685;BME280;61365;52.162;4.500;2023-04-21T03:18:55;101469.47;;;7.89;93.45
72685;BME280;61365;52.162;4.500;2023-04-21T03:21:21;101464.22;;;7.88;93.94
72685;BME280;61365;52.162;4.500;2023-04-21T03:23:47;101469.53;;;7.92;94.36
72685;BME280;61365;52.162;4.500;2023-04-21T03:26:13;101461.13;;;8.09;92.59
72685;BME280;61365;52.162;4.500;2023-04-21T03:28:39;101469.88;;;8.09;92.58
72685;BME280;61365;52.162;4.500;2023-04-21T03:31:05;101466.19;;;8.00;93.60
72685;BME280;61365;52.162;4.500;2023-04-21T03:33:31;101466.84;;;7.89;93.53
72685;BME280;61365;52.162;4.500;2023-04-21T03:35:57;101473.63;;;7.79;93.73
72685;BME280;61365;52.162;4.500;2023-04-21T03:38:23;101473.41;;;7.69;95.27
72685;BME280;61365;52.162;4.500;2023-04-21T03:40:50;101460.72;;;7.87;95.33
72685;BME280;61365;52.162;4.500;2023-04-21T03:43:16;101444.25;;;7.91;94.54
72685;BME280;61365;52.162;4.500;2023-04-21T03:45:42;101445.72;;;7.77;93.64
72685;BME280;61365;52.162;4.500;2023-04-21T03:48:08;101453.78;;;7.89;93.21
72685;BME280;61365;52.162;4.500;2023-04-21T03:50:34;101445.44;;;7.64;94.38
72685;BME280;61365;52.162;4.500;2023-04-21T03:53:00;101441.50;;;7.85;94.64
72685;BME280;61365;52.162;4.500;2023-04-21T03:55:26;101433.72;;;7.88;94.34
72685;BME280;61365;52.162;4.500;2023-04-21T03:57:52;101426.63;;;7.81;93.90
72685;BME280;61365;52.162;4.500;2023-04-21T04:00:18;101426.78;;;7.89;94.40
72685;BME280;61365;52.162;4.500;2023-04-21T04:02:45;101424.84;;;7.78;93.71
72685;BME280;61365;52.162;4.500;2023-04-21T04:05:11;101424.63;;;7.68;94.65
72685;BME280;61365;52.162;4.500;2023-04-21T04:07:37;101413.59;;;7.82;94.87
72685;BME280;61365;52.162;4.500;2023-04-21T04:10:04;101413.50;;;7.78;94.57
72685;BME280;61365;52.162;4.500;2023-04-21T04:12:30;101418.03;;;7.87;95.27
72685;BME280;61365;52.162;4.500;2023-04-21T04:14:56;101425.03;;;7.89;94.61
72685;BME280;61365;52.162;4.500;2023-04-21T04:17:22;101416.97;;;7.77;94.87
72685;BME280;61365;52.162;4.500;2023-04-21T04:19:49;101416.06;;;7.76;94.62
72685;BME280;61365;52.162;4.500;2023-04-21T04:22:15;101414.34;;;7.77;94.41
72685;BME280;61365;52.162;4.500;2023-04-21T04:24:41;101417.59;;;7.65;95.29
72685;BME280;61365;52.162;4.500;2023-04-21T04:27:10;101419.94;;;7.95;95.39
72685;BME280;61365;52.162;4.500;2023-04-21T04:29:38;101408.38;;;7.84;94.37
72685;BME280;61365;52.162;4.500;2023-04-21T04:32:06;101415.44;;;7.88;94.85
72685;BME280;61365;52.162;4.500;2023-04-21T04:34:35;101412.34;;;8.09;93.60
72685;BME280;61365;52.162;4.500;2023-04-21T04:37:02;101412.88;;;7.90;93.76
72685;BME280;61365;52.162;4.500;2023-04-21T04:39:29;101400.78;;;7.96;94.67
72685;BME280;61365;52.162;4.500;2023-04-21T04:41:56;101408.38;;;7.84;94.91
72685;BME280;61365;52.162;4.500;2023-04-21T04:44:22;101416.63;;;8.04;94.20
72685;BME280;61365;52.162;4.500;2023-04-21T04:46:50;101420.78;;;7.94;94.69
72685;BME280;61365;52.162;4.500;2023-04-21T04:49:17;101419.28;;;8.06;94.15
72685;BME280;61365;52.162;4.500;2023-04-21T04:51:43;101418.44;;;8.10;93.81
72685;BME280;61365;52.162;4.500;2023-04-21T04:54:09;101419.38;;;8.12;93.11
72685;BME280;61365;52.162;4.500;2023-04-21T04:56:35;101423.41;;;7.94;93.77
72685;BME280;61365;52.162;4.500;2023-04-21T04:59:02;101423.09;;;8.25;93.14
72685;BME280;61365;52.162;4.500;2023-04-21T05:01:28;101421.97;;;8.10;93.48
72685;BME280;61365;52.162;4.500;2023-04-21T05:03:56;101428.03;;;8.09;93.85
72685;BME280;61365;52.162;4.500;2023-04-21T05:06:23;101440.19;;;8.06;94.31
72685;BME280;61365;52.162;4.500;2023-04-21T05:08:49;101440.94;;;8.00;94.13
72685;BME280;61365;52.162;4.500;2023-04-21T05:11:15;101428.97;;;8.11;93.66
72685;BME280;61365;52.162;4.500;2023-04-21T05:13:41;101433.28;;;8.11;93.21
72685;BME280;61365;52.162;4.500;2023-04-21T05:16:07;101436.66;;;8.05;93.98
72685;BME280;61365;52.162;4.500;2023-04-21T05:18:34;101439.22;;;8.01;94.20
72685;BME280;61365;52.162;4.500;2023-04-21T05:21:00;101427.78;;;7.97;95.03
72685;BME280;61365;52.162;4.500;2023-04-21T05:23:26;101425.44;;;8.09;94.31
72685;BME280;61365;52.162;4.500;2023-04-21T05:25:52;101428.03;;;8.09;94.26
72685;BME280;61365;52.162;4.500;2023-04-21T05:28:19;101429.56;;;7.98;93.75
72685;BME280;61365;52.162;4.500;2023-04-21T05:30:45;101431.69;;;8.18;93.51
72685;BME280;61365;52.162;4.500;2023-04-21T05:33:11;101444.56;;;8.07;93.73
72685;BME280;61365;52.162;4.500;2023-04-21T05:35:37;101424.94;;;8.31;93.73
72685;BME280;61365;52.162;4.500;2023-04-21T05:38:03;101434.25;;;8.15;94.12
72685;BME280;61365;52.162;4.500;2023-04-21T05:40:29;101445.41;;;8.06;94.38
72685;BME280;61365;52.162;4.500;2023-04-21T05:42:55;101439.53;;;8.19;94.00
72685;BME280;61365;52.162;4.500;2023-04-21T05:45:21;101441.31;;;8.22;94.27
72685;BME280;61365;52.162;4.500;2023-04-21T05:47:48;101436.44;;;8.40;93.62
72685;BME280;61365;52.162;4.500;2023-04-21T05:50:15;101442.41;;;8.32;94.00
72685;BME280;61365;52.162;4.500;2023-04-21T05:52:41;101452.81;;;8.30;93.58
72685;BME280;61365;52.162;4.500;2023-04-21T05:55:07;101451.47;;;8.51;93.00
72685;BME280;61365;52.162;4.500;2023-04-21T05:57:33;101447.25;;;8.61;92.94
72685;BME280;61365;52.162;4.500;2023-04-21T05:59:59;101456.31;;;8.31;93.61
72685;BME280;61365;52.162;4.500;2023-04-21T06:02:26;101453.78;;;8.35;93.62
72685;BME280;61365;52.162;4.500;2023-04-21T06:04:52;101459.31;;;8.51;93.79
72685;BME280;61365;52.162;4.500;2023-04-21T06:07:18;101445.22;;;8.43;93.87
72685;BME280;61365;52.162;4.500;2023-04-21T06:09:48;101440.00;;;8.46;93.39
72685;BME280;61365;52.162;4.500;2023-04-21T06:12:14;101441.94;;;8.54;93.37
72685;BME280;61365;52.162;4.500;2023-04-21T06:14:40;101432.75;;;8.80;91.88
72685;BME280;61365;52.162;4.500;2023-04-21T06:17:06;101446.47;;;8.63;93.67
72685;BME280;61365;52.162;4.500;2023-04-21T06:19:36;101452.59;;;8.65;92.02
72685;BME280;61365;52.162;4.500;2023-04-21T06:22:03;101444.25;;;8.90;91.85
72685;BME280;61365;52.162;4.500;2023-04-21T06:24:33;101451.88;;;8.74;91.90
72685;BME280;61365;52.162;4.500;2023-04-21T06:26:59;101449.94;;;8.64;93.28
72685;BME280;61365;52.162;4.500;2023-04-21T06:29:26;101456.75;;;8.54;92.89
72685;BME280;61365;52.162;4.500;2023-04-21T06:31:52;101444.94;;;8.78;92.13
72685;BME280;61365;52.162;4.500;2023-04-21T06:34:18;101456.19;;;8.74;92.46
72685;BME280;61365;52.162;4.500;2023-04-21T06:36:45;101452.09;;;8.90;91.17
72685;BME280;61365;52.162;4.500;2023-04-21T06:39:12;101447.13;;;9.07;91.22
72685;BME280;61365;52.162;4.500;2023-04-21T06:41:38;101457.72;;;9.14;90.84
72685;BME280;61365;52.162;4.500;2023-04-21T06:44:04;101445.91;;;8.84;91.80
72685;BME280;61365;52.162;4.500;2023-04-21T06:46:30;101452.72;;;8.75;92.25
72685;BME280;61365;52.162;4.500;2023-04-21T06:48:56;101441.63;;;8.88;91.94
72685;BME280;61365;52.162;4.500;2023-04-21T06:51:22;101444.25;;;8.90;92.41
72685;BME280;61365;52.162;4.500;2023-04-21T06:53:48;101459.84;;;8.83;91.96
72685;BME280;61365;52.162;4.500;2023-04-21T06:56:15;101444.19;;;8.86;91.23
72685;BME280;61365;52.162;4.500;2023-04-21T06:58:41;101434.72;;;8.93;91.70
72685;BME280;61365;52.162;4.500;2023-04-21T07:01:07;101443.91;;;9.26;91.26
72685;BME280;61365;52.162;4.500;2023-04-21T07:03:33;101437.56;;;9.09;90.20
72685;BME280;61365;52.162;4.500;2023-04-21T07:05:59;101429.06;;;9.24;91.37
72685;BME280;61365;52.162;4.500;2023-04-21T07:08:26;101439.19;;;9.64;89.73
72685;BME280;61365;52.162;4.500;2023-04-21T07:10:52;101443.16;;;9.34;90.46
72685;BME280;61365;52.162;4.500;2023-04-21T07:13:18;101444.28;;;9.54;89.32
72685;BME280;61365;52.162;4.500;2023-04-21T07:15:44;101437.66;;;9.83;89.64
72685;BME280;61365;52.162;4.500;2023-04-21T07:18:10;101427.16;;;9.81;88.74
72685;BME280;61365;52.162;4.500;2023-04-21T07:20:36;101429.81;;;9.83;89.02
72685;BME280;61365;52.162;4.500;2023-04-21T07:23:03;101443.31;;;10.21;86.70
72685;BME280;61365;52.162;4.500;2023-04-21T07:25:29;101431.81;;;10.05;86.92
72685;BME280;61365;52.162;4.500;2023-04-21T07:27:55;101437.97;;;10.14;85.26
72685;BME280;61365;52.162;4.500;2023-04-21T07:30:21;101428.53;;;10.28;85.68
72685;BME280;61365;52.162;4.500;2023-04-21T07:32:47;101426.31;;;9.85;86.59
72685;BME280;61365;52.162;4.500;2023-04-21T07:35:13;101423.06;;;10.08;86.41
72685;BME280;61365;52.162;4.500;2023-04-21T07:37:39;101424.41;;;9.70;86.71
72685;BME280;61365;52.162;4.500;2023-04-21T07:40:08;101430.59;;;9.77;86.18
72685;BME280;61365;52.162;4.500;2023-04-21T07:42:35;101429.81;;;9.83;86.20
72685;BME280;61365;52.162;4.500;2023-04-21T07:45:01;101429.66;;;9.70;87.34
72685;BME280;61365;52.162;4.500;2023-04-21T07:47:28;101427.06;;;9.73;87.09
72685;BME280;61365;52.162;4.500;2023-04-21T07:49:54;101435.75;;;9.69;87.64
72685;BME280;61365;52.162;4.500;2023-04-21T07:52:21;101443.59;;;9.68;86.67
72685;BME280;61365;52.162;4.500;2023-04-21T07:54:47;101440.13;;;9.69;86.90
72685;BME280;61365;52.162;4.500;2023-04-21T07:57:14;101444.50;;;9.70;86.96
72685;BME280;61365;52.162;4.500;2023-04-21T07:59:40;101451.50;;;9.71;87.77
72685;BME280;61365;52.162;4.500;2023-04-21T08:02:06;101446.09;;;9.60;88.38
72685;BME280;61365;52.162;4.500;2023-04-21T08:04:33;101439.38;;;9.81;86.67
72685;BME280;61365;52.162;4.500;2023-04-21T08:06:59;101444.50;;;9.71;86.68
72685;BME280;61365;52.162;4.500;2023-04-21T08:09:26;101441.94;;;9.74;85.97
72685;BME280;61365;52.162;4.500;2023-04-21T08:11:52;101435.69;;;9.66;84.79
72685;BME280;61365;52.162;4.500;2023-04-21T08:14:20;101441.22;;;9.89;84.56
72685;BME280;61365;52.162;4.500;2023-04-21T08:16:46;101430.72;;;9.86;84.34
72685;BME280;61365;52.162;4.500;2023-04-21T08:19:12;101431.09;;;10.22;82.60
72685;BME280;61365;52.162;4.500;2023-04-21T08:21:38;101435.91;;;9.83;84.36
72685;BME280;61365;52.162;4.500;2023-04-21T08:24:05;101435.28;;;10.04;83.18
72685;BME280;61365;52.162;4.500;2023-04-21T08:26:31;101433.75;;;10.27;82.92
72685;BME280;61365;52.162;4.500;2023-04-21T08:28:58;101429.13;;;10.95;80.41
72685;BME280;61365;52.162;4.500;2023-04-21T08:31:25;101431.72;;;10.98;79.20
72685;BME280;61365;52.162;4.500;2023-04-21T08:33:52;101440.56;;;11.09;78.80
72685;BME280;61365;52.162;4.500;2023-04-21T08:36:19;101430.72;;;10.76;79.54
72685;BME280;61365;52.162;4.500;2023-04-21T08:38:45;101428.34;;;11.11;78.32
72685;BME280;61365;52.162;4.500;2023-04-21T08:41:11;101425.91;;;11.52;78.02
72685;BME280;61365;52.162;4.500;2023-04-21T08:43:38;101427.53;;;11.26;78.11
72685;BME280;61365;52.162;4.500;2023-04-21T08:46:05;101426.69;;;11.32;77.24
72685;BME280;61365;52.162;4.500;2023-04-21T08:48:36;101418.88;;;11.43;77.61
72685;BME280;61365;52.162;4.500;2023-04-21T08:51:04;101438.03;;;11.23;77.07
72685;BME280;61365;52.162;4.500;2023-04-21T08:53:34;101420.56;;;11.33;76.49
72685;BME280;61365;52.162;4.500;2023-04-21T08:56:02;101414.41;;;11.26;75.75
72685;BME280;61365;52.162;4.500;2023-04-21T08:58:28;101417.97;;;11.36;75.69
72685;BME280;61365;52.162;4.500;2023-04-21T09:00:54;101413.69;;;11.60;75.88
72685;BME280;61365;52.162;4.500;2023-04-21T09:03:21;101426.00;;;11.80;75.09
72685;BME280;61365;52.162;4.500;2023-04-21T09:08:24;101410.41;;;12.50;71.55
72685;BME280;61365;52.162;4.500;2023-04-21T09:10:52;101420.91;;;12.54;68.92
72685;BME280;61365;52.162;4.500;2023-04-21T09:13:19;101404.25;;;12.35;71.82
72685;BME280;61365;52.162;4.500;2023-04-21T09:15:47;101410.34;;;12.90;70.08
72685;BME280;61365;52.162;4.500;2023-04-21T09:18:17;101411.22;;;13.03;69.42
72685;BME280;61365;52.162;4.500;2023-04-21T09:20:45;101408.31;;;13.87;66.66
72685;BME280;61365;52.162;4.500;2023-04-21T09:23:13;101412.09;;;13.00;67.75
72685;BME280;61365;52.162;4.500;2023-04-21T09:25:40;101401.63;;;12.60;68.32
72685;BME280;61365;52.162;4.500;2023-04-21T09:28:11;101416.50;;;13.01;68.36
72685;BME280;61365;52.162;4.500;2023-04-21T09:30:39;101405.00;;;13.33;66.68
72685;BME280;61365;52.162;4.500;2023-04-21T09:33:07;101404.72;;;13.99;63.70
72685;BME280;61365;52.162;4.500;2023-04-21T09:35:39;101406.69;;;13.59;67.17
72685;BME280;61365;52.162;4.500;2023-04-21T09:38:10;101408.56;;;13.00;67.12
72685;BME280;61365;52.162;4.500;2023-04-21T09:40:37;101400.59;;;13.42;66.95
72685;BME280;61365;52.162;4.500;2023-04-21T09:43:05;101397.72;;;13.88;65.50
72685;BME280;61365;52.162;4.500;2023-04-21T09:45:32;101396.97;;;13.66;66.14
72685;BME280;61365;52.162;4.500;2023-04-21T09:47:59;101397.94;;;13.48;67.62
72685;BME280;61365;52.162;4.500;2023-04-21T09:50:28;101390.56;;;14.10;64.87
72685;BME280;61365;52.162;4.500;2023-04-21T09:52:55;101381.97;;;14.93;62.03
72685;BME280;61365;52.162;4.500;2023-04-21T09:55:23;101386.06;;;14.26;64.44
72685;BME280;61365;52.162;4.500;2023-04-21T09:57:59;101383.63;;;13.97;63.98
72685;BME280;61365;52.162;4.500;2023-04-21T10:00:27;101396.75;;;14.03;64.75
72685;BME280;61365;52.162;4.500;2023-04-21T10:02:54;101397.81;;;13.73;64.28
72685;BME280;61365;52.162;4.500;2023-04-21T10:05:23;101385.59;;;13.51;66.34
72685;BME280;61365;52.162;4.500;2023-04-21T10:07:49;101382.09;;;13.57;67.12
72685;BME280;61365;52.162;4.500;2023-04-21T10:10:18;101387.41;;;13.46;65.74
72685;BME280;61365;52.162;4.500;2023-04-21T10:12:49;101382.66;;;14.09;64.32
72685;BME280;61365;52.162;4.500;2023-04-21T10:15:32;101391.81;;;13.43;64.38
72685;BME280;61365;52.162;4.500;2023-04-21T10:18:20;101391.56;;;13.94;65.25
72685;BME280;61365;52.162;4.500;2023-04-21T10:20:51;101382.78;;;13.87;65.16
72685;BME280;61365;52.162;4.500;2023-04-21T10:26:22;101370.41;;;14.02;65.11
72685;BME280;61365;52.162;4.500;2023-04-21T10:28:56;101371.47;;;13.63;67.05
72685;BME280;61365;52.162;4.500;2023-04-21T10:31:39;101377.66;;;13.61;67.97
72685;BME280;61365;52.162;4.500;2023-04-21T10:34:17;101359.94;;;13.88;69.04
72685;BME280;61365;52.162;4.500;2023-04-21T10:39:23;101361.56;;;14.09;66.45
72685;BME280;61365;52.162;4.500;2023-04-21T10:44:49;101350.94;;;14.15;67.04
72685;BME280;61365;52.162;4.500;2023-04-21T10:52:42;101353.84;;;13.78;66.13
72685;BME280;61365;52.162;4.500;2023-04-21T10:55:10;101353.84;;;13.76;65.28
72685;BME280;61365;52.162;4.500;2023-04-21T10:57:39;101341.34;;;14.05;64.47
72685;BME280;61365;52.162;4.500;2023-04-21T11:00:08;101341.41;;;13.95;65.54
72685;BME280;61365;52.162;4.500;2023-04-21T11:02:36;101334.31;;;14.02;66.12
72685;BME280;61365;52.162;4.500;2023-04-21T11:05:03;101333.88;;;14.56;63.53
72685;BME280;61365;52.162;4.500;2023-04-21T11:07:30;101329.78;;;14.23;63.87
72685;BME280;61365;52.162;4.500;2023-04-21T11:10:03;101328.88;;;14.25;63.96
72685;BME280;61365;52.162;4.500;2023-04-21T11:12:31;101334.34;;;14.99;62.27
72685;BME280;61365;52.162;4.500;2023-04-21T11:15:07;101339.25;;;14.46;60.58
72685;BME280;61365;52.162;4.500;2023-04-21T11:17:36;101338.19;;;14.64;61.69
72685;BME280;61365;52.162;4.500;2023-04-21T11:20:08;101317.28;;;14.40;62.32
72685;BME280;61365;52.162;4.500;2023-04-21T11:22:35;101318.66;;;14.82;61.09
72685;BME280;61365;52.162;4.500;2023-04-21T11:25:02;101323.38;;;14.50;62.82
72685;BME280;61365;52.162;4.500;2023-04-21T11:27:29;101310.25;;;14.38;63.45
72685;BME280;61365;52.162;4.500;2023-04-21T11:29:58;101302.03;;;14.72;64.34
72685;BME280;61365;52.162;4.500;2023-04-21T11:32:28;101304.03;;;14.47;66.40
72685;BME280;61365;52.162;4.500;2023-04-21T11:34:55;101306.63;;;14.51;64.93
72685;BME280;61365;52.162;4.500;2023-04-21T11:40:01;101287.91;;;14.76;64.50
72685;BME280;61365;52.162;4.500;2023-04-21T11:42:29;101292.47;;;14.59;65.36
72685;BME280;61365;52.162;4.500;2023-04-21T11:44:56;101288.81;;;14.75;64.06
72685;BME280;61365;52.162;4.500;2023-04-21T11:47:26;101293.09;;;14.85;62.71
72685;BME280;61365;52.162;4.500;2023-04-21T11:49:55;101285.31;;;14.67;63.88
72685;BME280;61365;52.162;4.500;2023-04-21T11:52:26;101274.34;;;15.07;60.76
72685;BME280;61365;52.162;4.500;2023-04-21T11:57:28;101267.00;;;15.28;59.90
72685;BME280;61365;52.162;4.500;2023-04-21T11:59:59;101275.16;;;15.12;61.33
72685;BME280;61365;52.162;4.500;2023-04-21T12:02:29;101270.59;;;15.24;60.88
72685;BME280;61365;52.162;4.500;2023-04-21T12:05:06;101264.84;;;14.91;60.68
72685;BME280;61365;52.162;4.500;2023-04-21T12:07:35;101267.53;;;14.86;62.15
72685;BME280;61365;52.162;4.500;2023-04-21T12:12:38;101256.34;;;15.34;61.11
72685;BME280;61365;52.162;4.500;2023-04-21T12:15:06;101276.41;;;15.49;59.62
72685;BME280;61365;52.162;4.500;2023-04-21T12:17:42;101287.59;;;15.04;61.60
72685;BME280;61365;52.162;4.500;2023-04-21T12:20:10;101268.53;;;14.77;66.64
72685;BME280;61365;52.162;4.500;2023-04-21T12:22:36;101278.59;;;14.36;66.92
72685;BME280;61365;52.162;4.500;2023-04-21T12:25:03;101267.94;;;14.47;66.25
72685;BME280;61365;52.162;4.500;2023-04-21T12:27:30;101279.56;;;14.31;67.67
72685;BME280;61365;52.162;4.500;2023-04-21T12:29:56;101267.47;;;14.00;68.54
72685;BME280;61365;52.162;4.500;2023-04-21T12:32:22;101250.84;;;13.95;69.47
72685;BME280;61365;52.162;4.500;2023-04-21T12:34:49;101242.53;;;14.35;68.16
72685;BME280;61365;52.162;4.500;2023-04-21T12:37:15;101239.00;;;14.36;67.68
72685;BME280;61365;52.162;4.500;2023-04-21T12:39:41;101237.88;;;14.59;65.61
72685;BME280;61365;52.162;4.500;2023-04-21T12:42:07;101250.94;;;14.76;65.31
72685;BME280;61365;52.162;4.500;2023-04-21T12:44:34;101251.97;;;14.60;65.23
72685;BME280;61365;52.162;4.500;2023-04-21T12:47:00;101229.38;;;15.10;63.79
72685;BME280;61365;52.162;4.500;2023-04-21T12:49:26;101231.16;;;15.07;63.51
72685;BME280;61365;52.162;4.500;2023-04-21T12:51:52;101256.84;;;14.13;66.55
72685;BME280;61365;52.162;4.500;2023-04-21T12:54:18;101238.81;;;14.56;65.96
72685;BME280;61365;52.162;4.500;2023-04-21T12:56:44;101233.72;;;14.36;66.55
72685;BME280;61365;52.162;4.500;2023-04-21T12:59:11;101241.44;;;14.56;64.81
72685;BME280;61365;52.162;4.500;2023-04-21T13:01:37;101233.47;;;14.61;65.80
72685;BME280;61365;52.162;4.500;2023-04-21T13:04:05;101235.63;;;15.03;64.75
72685;BME280;61365;52.162;4.500;2023-04-21T13:06:31;101225.31;;;14.84;65.59
72685;BME280;61365;52.162;4.500;2023-04-21T13:08:58;101218.38;;;14.74;63.90
72685;BME280;61365;52.162;4.500;2023-04-21T13:11:25;101221.88;;;14.76;64.21
72685;BME280;61365;52.162;4.500;2023-04-21T13:13:51;101203.13;;;14.96;63.70
72685;BME280;61365;52.162;4.500;2023-04-21T13:16:17;101211.91;;;14.97;64.67
72685;BME280;61365;52.162;4.500;2023-04-21T13:18:43;101198.06;;;14.79;65.35
72685;BME280;61365;52.162;4.500;2023-04-21T13:21:10;101213.91;;;14.79;65.45